Mariscal Sucre Air Base

SEQU · Pichincha, 厄瓜多尔

罗盘
风向 的 风向 020° Mariscal Sucre International Airport 17/35
风: 7 kt, 3 beaufort

6 kt

4 kt
改变
0 ft 1.000 2.000 3.000 4.000 5.000
Cloud Cloud
FEW 1.000
Cloud Cloud Cloud Cloud Cloud Cloud
BKN 2.600
METAR SEQM 160000Z 02007KT 9999 FEW010 BKN026 17/14 Q1024 NOSIG RMK A3024

METAR Mariscal Sucre International Airport - SEQU

Mariscal Sucre International Airport是,厄瓜多尔中的直升机场。 该机场位于纬度-0,14115和经度-78,48820。 该机场有一条跑道: 17/35. 本场的ICAO机场代码为SEQU。 机场在Guayaquil FIR中。

该航空气象观测是针对蘇克雷元帥國際機場在2024年4月15日 19:00, 当地时间进行的。

机场观察

风向为020°,速度为7 kt。

可见度为10 km 或者更多。

有几云在1.000 ft的高度 和 碎云在2.600 ft的高度。 破损或更高的上限为2.600 ft。

温度和风寒是17 °C。 露点为14 °C,相对湿度为83%。 海平面上的气压为1024 hPa (QNH)。

白天

今天,太阳从06:10升起,在18:16降落。 这适用于Mariscal Sucre International Airport,世界夏令时可能有所不同。 当地时间与世界标准时间之间的时差为-5 小时。 夏令时目前正在进行中。

公司介绍

我们没有关于这个机场的公司信息。

体会

到Vliegles.nl去找飞行课程,跳伞和其他飞行体验。 浏览页面,了解Mariscal Sucre International Airport附近所有可用的活动。 你也可以使用搜索功能来寻找你所在地附近的特定飞行课程、跳伞或其他飞行体验。

跑道

Id 标题 侧风 逆风 侧风 %
17/35 170°-350° 4 kt 6 kt 50 %

逆风成分最大的方向会被突出显示,并用于横风计算。 这并不一定意味着这个方向在使用。

乌云

1.000 ft FEW 几云
2.600 ft BKN 碎云

温度 & 天气

温度 17 °C
露点 14 °C
相对湿度 83%
Kp-index 2 (0-9)

评论

A3024

白天

日出
06:09 (10:32)
中午
12:13
日落
18:16

小工具

你想在你的网站上有一个关于Mariscal Sucre International Airport的当前航空天气(METAR)的小部件吗?

显示HTML代码
报告变更